Time;durP1;ratioP1;P1;durP2;ratioP2;P2;SDS_P1;SDS_P2;PMS_P1;PMS_P2;Temp;Humidity;BMP_temperature;BMP_pressure;BME280_temperature;BME280_humidity;BME280_pressure;Samples;Min_cycle;Max_cycle;Signal;HPM_P1;HPM_P2
2022/04/14 00:02:16;;;;;;;;;;;7.10;90.30;;;;;;4863449;29;20074;-83
2022/04/14 00:04:54;;;;;;;;;;;7.10;90.70;;;;;;4906036;28;19910;-81
2022/04/14 00:07:23;;;;;;;;;;;7.40;90.00;;;;;;5002510;28;20174;-81
2022/04/14 00:09:54;;;;;;;;;;;7.50;90.80;;;;;;4983843;28;19914;-82
2022/04/14 00:12:51;;;;;;;;;;;7.70;90.20;;;;;;4971129;29;19922;-80
2022/04/14 00:15:36;;;;;;;;;;;6.40;90.00;;;;;;4953057;29;20411;-82
2022/04/14 00:22:13;;;;;;;;;;;7.70;90.40;;;;;;4966443;28;20012;-82
2022/04/14 00:27:53;;;;;;;;;;;7.40;90.70;;;;;;4842983;29;19987;-82
2022/04/14 00:31:10;;;;;;;;;;;;;;;;;;;;;
2022/04/14 00:34:02;;;;;;;;;;;7.50;90.90;;;;;;4792202;29;19957;-82
2022/04/14 00:37:04;;;;;;;;;;;7.50;91.80;;;;;;4822300;29;19925;-82
2022/04/14 00:40:20;;;;;;;;;;;;;;;;;;;;;
2022/04/14 00:43:33;;;;;;;;;;;6.50;90.80;;;;;;4769891;30;19953;-81
2022/04/14 00:46:34;;;;;;;;;;;7.60;91.20;;;;;;4751791;30;19914;-82
2022/04/14 00:52:49;;;;;;;;;;;7.00;91.50;;;;;;4739229;30;19915;-81
2022/04/14 00:55:45;;;;;;;;;;;5.60;91.40;;;;;;4734230;30;19919;-82
2022/04/14 01:02:06;;;;;;;;;;;7.10;91.70;;;;;;4781698;30;20457;-82
2022/04/14 01:05:06;;;;;;;;;;;7.50;91.80;;;;;;4800262;29;19916;-83
2022/04/14 01:08:26;;;;;;;;;;;;;;;;;;;;;
2022/04/14 01:10:49;;;;;;;;;;;6.50;92.00;;;;;;5066343;28;19942;-82
2022/04/14 01:13:39;;;;;;;;;;;10.60;93.80;;;;;;5052898;28;19928;-82
2022/04/14 01:16:47;;;;;;;;;;;7.70;92.50;;;;;;5055967;28;19909;-82
2022/04/14 01:22:47;;;;;;;;;;;6.80;92.50;;;;;;5012934;28;19924;-81
2022/04/14 01:25:17;;;;;;;;;;;5.10;91.90;;;;;;4929176;29;19931;-82
2022/04/14 01:28:20;;;;;;;;;;;6.10;92.20;;;;;;4919184;29;19909;-84
2022/04/14 01:34:05;;;;;;;;;;;6.20;92.90;;;;;;4912467;29;19927;-83
2022/04/14 01:36:56;;;;;;;;;;;2.50;91.40;;;;;;4893881;29;19916;-83
2022/04/14 01:39:52;;;;;;;;;;;6.50;92.60;;;;;;4884972;29;19906;-85
2022/04/14 01:45:19;;;;;;;;;;;6.00;92.60;;;;;;5006060;26;19988;-83
2022/04/14 01:47:45;;;;;;;;;;;6.50;93.60;;;;;;5024975;28;19913;-81
2022/04/14 01:50:15;;;;;;;;;;;6.90;93.30;;;;;;5026800;28;19909;-84
2022/04/14 01:52:41;;;;;;;;;;;8.30;93.40;;;;;;5026990;28;19913;-82
2022/04/14 01:55:16;;;;;;;;;;;5.90;93.30;;;;;;5025579;28;19940;-81
2022/04/14 01:57:46;;;;;;;;;;;5.80;93.60;;;;;;5025943;28;20056;-83
2022/04/14 02:00:16;;;;;;;;;;;6.70;93.40;;;;;;5059867;28;19909;-82
2022/04/14 02:02:41;;;;;;;;;;;6.10;93.90;;;;;;5023370;28;19917;-82
2022/04/14 02:05:07;;;;;;;;;;;5.80;94.30;;;;;;5018862;28;20032;-82
2022/04/14 02:07:38;;;;;;;;;;;5.70;93.80;;;;;;5018796;28;19913;-82
2022/04/14 02:10:04;;;;;;;;;;;6.10;93.40;;;;;;5035268;28;19909;-83
2022/04/14 02:12:30;;;;;;;;;;;5.80;94.00;;;;;;5019403;28;19909;-83
2022/04/14 02:14:55;;;;;;;;;;;8.20;94.90;;;;;;5018720;28;19964;-80
2022/04/14 02:17:21;;;;;;;;;;;5.70;94.60;;;;;;5046819;28;19967;-80
2022/04/14 02:19:47;;;;;;;;;;;6.40;94.30;;;;;;5033126;28;20008;-82
2022/04/14 02:22:13;;;;;;;;;;;6.20;94.00;;;;;;5050666;28;19913;-83
2022/04/14 02:24:41;;;;;;;;;;;5.50;94.00;;;;;;5030176;28;19917;-81
2022/04/14 02:27:27;;;;;;;;;;;6.10;95.10;;;;;;5038956;28;19920;-82
2022/04/14 02:30:01;;;;;;;;;;;4.20;93.90;;;;;;5033867;28;19956;-83
2022/04/14 02:32:29;;;;;;;;;;;6.90;94.80;;;;;;5016995;28;19913;-82
2022/04/14 02:34:58;;;;;;;;;;;3.30;94.30;;;;;;5002188;28;20342;-83
2022/04/14 02:37:25;;;;;;;;;;;6.00;94.30;;;;;;5019343;28;19909;-82
2022/04/14 02:39:53;;;;;;;;;;;6.00;94.20;;;;;;5019359;28;19916;-83
2022/04/14 02:42:24;;;;;;;;;;;5.60;94.20;;;;;;5017766;28;19913;-84
2022/04/14 02:45:16;;;;;;;;;;;5.30;93.50;;;;;;5021561;28;19925;-83
2022/04/14 02:47:42;;;;;;;;;;;6.10;93.90;;;;;;5044164;28;19916;-79
2022/04/14 02:50:55;;;;;;;;;;;5.80;95.10;;;;;;5027511;28;19909;-83
2022/04/14 02:53:27;;;;;;;;;;;;;;;;;;;;;
2022/04/14 02:59:09;;;;;;;;;;;6.40;94.10;;;;;;5039306;28;19924;-81
2022/04/14 03:01:51;;;;;;;;;;;5.80;94.00;;;;;;5033062;28;19921;-83
2022/04/14 03:04:30;;;;;;;;;;;4.30;94.40;;;;;;5017191;28;19910;-82
2022/04/14 03:12:46;;;;;;;;;;;5.20;94.20;;;;;;5611580;22;19929;-83
2022/04/14 03:15:52;;;;;;;;;;;;;;;;;;;;;
2022/04/14 03:22:42;;;;;;;;;;;;;;;;;;;;;
2022/04/14 03:24:45;;;;;;;;;;;;;;;;;;;;;
2022/04/14 03:27:37;;;;;;;;;;;5.50;95.20;;;;;;5064949;28;19973;-81
2022/04/14 03:30:58;;;;;;;;;;;4.20;94.90;;;;;;5040500;28;20127;-82
2022/04/14 03:36:47;;;;;;;;;;;5.30;94.50;;;;;;4977265;28;20608;-82
2022/04/14 03:46:19;;;;;;;;;;;;;;;;;;;;;
2022/04/14 03:49:18;;;;;;;;;;;6.50;95.90;;;;;;4898342;29;19994;-82
2022/04/14 03:52:35;;;;;;;;;;;;;;;;;;;;;
2022/04/14 03:55:25;;;;;;;;;;;;;;;;;;;;;
2022/04/14 03:58:04;;;;;;;;;;;5.60;95.50;;;;;;4858356;29;19988;-81
2022/04/14 04:00:33;;;;;;;;;;;5.70;94.90;;;;;;4854595;29;19930;-81
2022/04/14 04:06:45;;;;;;;;;;;;;;;;;;;;;
2022/04/14 04:10:16;;;;;;;;;;;5.90;95.30;;;;;;4826814;29;20177;-82
2022/04/14 04:13:07;;;;;;;;;;;4.90;95.00;;;;;;4784043;29;19944;-82
2022/04/14 04:16:14;;;;;;;;;;;6.20;95.50;;;;;;4822293;29;20533;-82
2022/04/14 04:18:48;;;;;;;;;;;8.10;96.50;;;;;;4827552;29;19949;-82
2022/04/14 04:21:38;;;;;;;;;;;4.80;95.70;;;;;;4860039;29;19923;-82
2022/04/14 04:24:50;;;;;;;;;;;3.50;94.80;;;;;;4873180;29;19984;-82
2022/04/14 04:27:38;;;;;;;;;;;5.50;95.20;;;;;;4824612;29;19933;-82
2022/04/14 04:33:12;;;;;;;;;;;;;;;;;;;;;
2022/04/14 04:36:02;;;;;;;;;;;5.20;95.80;;;;;;4864176;29;19972;-82
2022/04/14 04:39:01;;;;;;;;;;;;;;;;;;;;;
2022/04/14 04:41:45;;;;;;;;;;;7.20;95.60;;;;;;4865412;29;20059;-82
2022/04/14 04:44:25;;;;;;;;;;;5.40;95.60;;;;;;4877305;29;19924;-81
2022/04/14 04:47:20;;;;;;;;;;;;;;;;;;;;;
2022/04/14 04:50:07;;;;;;;;;;;5.40;95.40;;;;;;4947012;28;19974;-82
2022/04/14 04:52:48;;;;;;;;;;;6.30;95.60;;;;;;4959744;28;19910;-82
2022/04/14 04:55:42;;;;;;;;;;;5.90;96.20;;;;;;4959715;28;19925;-82
2022/04/14 04:58:35;;;;;;;;;;;6.50;95.70;;;;;;4905474;29;20405;-83
2022/04/14 05:01:47;;;;;;;;;;;5.00;95.70;;;;;;4896261;29;19911;-82
2022/04/14 05:04:20;;;;;;;;;;;3.30;94.70;;;;;;4959369;28;20450;-80
2022/04/14 05:10:02;;;;;;;;;;;5.50;95.10;;;;;;4973458;28;20410;-82
2022/04/14 05:12:28;;;;;;;;;;;5.20;95.70;;;;;;4952980;28;19944;-82
2022/04/14 05:14:54;;;;;;;;;;;5.30;96.00;;;;;;4952420;28;19918;-82
2022/04/14 05:17:22;;;;;;;;;;;5.80;96.70;;;;;;4952598;28;19914;-82
2022/04/14 05:19:51;;;;;;;;;;;4.20;96.10;;;;;;4968933;28;19910;-82
2022/04/14 05:22:17;;;;;;;;;;;5.90;95.40;;;;;;4981375;28;20232;-82
2022/04/14 05:24:47;;;;;;;;;;;5.10;96.30;;;;;;4969042;28;20133;-82
2022/04/14 05:27:15;;;;;;;;;;;3.20;95.40;;;;;;4985842;28;19981;-81
2022/04/14 05:29:44;;;;;;;;;;;6.00;95.80;;;;;;4974826;28;19977;-81
2022/04/14 05:32:09;;;;;;;;;;;4.70;94.50;;;;;;4970609;28;19925;-82
2022/04/14 05:34:40;;;;;;;;;;;2.80;95.10;;;;;;4973370;28;19917;-82
2022/04/14 05:37:08;;;;;;;;;;;6.00;95.10;;;;;;5012294;28;19920;-82
2022/04/14 05:39:34;;;;;;;;;;;7.50;95.20;;;;;;5012192;28;19913;-81
2022/04/14 05:42:03;;;;;;;;;;;6.40;95.10;;;;;;5012541;28;20457;-82
2022/04/14 05:44:36;;;;;;;;;;;4.80;94.00;;;;;;5010736;28;20012;-82
2022/04/14 05:47:12;;;;;;;;;;;6.30;94.20;;;;;;5012632;28;19920;-82
2022/04/14 05:49:46;;;;;;;;;;;3.20;93.20;;;;;;5010759;28;19944;-82
2022/04/14 05:52:19;;;;;;;;;;;5.00;92.80;;;;;;5028856;28;19921;-81
2022/04/14 05:55:03;;;;;;;;;;;9.40;94.50;;;;;;5009904;28;19913;-82
2022/04/14 05:57:32;;;;;;;;;;;6.60;93.10;;;;;;5010775;28;20012;-81
2022/04/14 06:00:09;;;;;;;;;;;6.40;94.00;;;;;;5010510;28;19945;-82
2022/04/14 06:02:47;;;;;;;;;;;8.40;93.20;;;;;;5042736;28;19963;-82
2022/04/14 06:05:25;;;;;;;;;;;;;;;;;;;;;
2022/04/14 06:08:01;;;;;;;;;;;;;;;;;;;;;
2022/04/14 06:10:58;;;;;;;;;;;6.90;94.00;;;;;;5031017;28;19980;-82
2022/04/14 06:13:26;;;;;;;;;;;7.40;92.80;;;;;;4968828;28;20009;-82
2022/04/14 06:19:16;;;;;;;;;;;7.70;91.80;;;;;;4931116;28;19950;-82
2022/04/14 06:22:18;;;;;;;;;;;7.50;92.10;;;;;;4915297;29;19958;-82
2022/04/14 06:25:04;;;;;;;;;;;9.00;91.50;;;;;;4913939;29;19958;-83
2022/04/14 06:27:43;;;;;;;;;;;9.70;91.50;;;;;;4927100;29;20097;-81
2022/04/14 06:30:26;;;;;;;;;;;7.90;91.00;;;;;;4926406;29;19911;-83
2022/04/14 06:33:06;;;;;;;;;;;8.50;90.30;;;;;;4928452;29;19974;-82
2022/04/14 06:35:57;;;;;;;;;;;8.60;89.90;;;;;;4911575;29;19915;-81
2022/04/14 06:38:31;;;;;;;;;;;7.90;89.40;;;;;;4869488;29;19912;-81
2022/04/14 06:41:19;;;;;;;;;;;8.20;89.90;;;;;;4871898;29;19953;-81
2022/04/14 06:47:27;;;;;;;;;;;8.40;89.20;;;;;;4888059;29;19915;-81
2022/04/14 06:49:52;;;;;;;;;;;8.60;87.40;;;;;;4888085;29;19911;-81
2022/04/14 06:52:28;;;;;;;;;;;9.30;89.50;;;;;;4889055;29;20219;-82
2022/04/14 06:58:07;;;;;;;;;;;9.10;88.60;;;;;;4968464;28;19914;-81
2022/04/14 07:01:13;;;;;;;;;;;8.90;84.50;;;;;;4969634;28;20360;-81
2022/04/14 07:07:06;;;;;;;;;;;9.60;84.90;;;;;;4934573;29;20148;-82
2022/04/14 07:10:04;;;;;;;;;;;7.60;80.60;;;;;;4943695;29;20391;-82
2022/04/14 07:12:43;;;;;;;;;;;10.10;82.80;;;;;;4959602;29;20015;-81
2022/04/14 07:15:46;;;;;;;;;;;13.00;83.40;;;;;;4987128;28;19937;-82
2022/04/14 07:18:17;;;;;;;;;;;9.20;79.60;;;;;;4990413;28;19946;-82
2022/04/14 07:20:55;;;;;;;;;;;10.20;79.10;;;;;;4988287;28;19977;-83
2022/04/14 07:23:51;;;;;;;;;;;11.00;79.00;;;;;;4996692;28;20204;-81
2022/04/14 07:27:07;;;;;;;;;;;10.60;78.60;;;;;;4962987;28;19914;-82
2022/04/14 07:30:23;;;;;;;;;;;;;;;;;;;;;
2022/04/14 07:33:17;;;;;;;;;;;;;;;;;;;;;
2022/04/14 07:36:19;;;;;;;;;;;11.20;76.90;;;;;;4977789;28;19973;-83
2022/04/14 07:39:23;;;;;;;;;;;11.40;75.40;;;;;;4921269;29;19990;-82
2022/04/14 07:42:26;;;;;;;;;;;;;;;;;;;;;
2022/04/14 07:48:04;;;;;;;;;;;;;;;;;;;;;
2022/04/14 07:54:01;;;;;;;;;;;12.00;71.10;;;;;;4985489;28;19989;-87
2022/04/14 07:56:56;;;;;;;;;;;12.10;70.70;;;;;;4966300;28;20579;-87
2022/04/14 07:59:34;;;;;;;;;;;12.30;69.10;;;;;;4964641;28;20057;-84
2022/04/14 08:05:16;;;;;;;;;;;13.50;69.80;;;;;;4975926;28;20008;-85
2022/04/14 08:08:12;;;;;;;;;;;;;;;;;;;;;
2022/04/14 08:10:39;;;;;;;;;;;13.60;65.80;;;;;;4979817;28;19910;-86
2022/04/14 08:13:35;;;;;;;;;;;13.30;65.40;;;;;;4960633;28;19922;-85
2022/04/14 08:16:21;;;;;;;;;;;13.70;65.30;;;;;;4940475;29;19927;-86
2022/04/14 08:19:05;;;;;;;;;;;13.70;62.00;;;;;;4925621;29;19911;-85
2022/04/14 08:25:46;;;;;;;;;;;;;;;;;;;;;
2022/04/14 08:28:27;;;;;;;;;;;12.50;58.20;;;;;;4865482;29;20060;-87
2022/04/14 08:31:22;;;;;;;;;;;14.50;58.90;;;;;;4856536;29;19948;-88
2022/04/14 08:46:31;;;;;;;;;;;15.50;54.70;;;;;;4739812;30;19973;-90
2022/04/14 08:51:38;;;;;;;;;;;15.90;54.40;;;;;;3071897;26;19978;-89
2022/04/14 08:54:17;;;;;;;;;;;15.80;53.20;;;;;;5063769;28;19954;-86
2022/04/14 08:56:46;;;;;;;;;;;13.70;51.10;;;;;;5061196;28;19909;-89
2022/04/14 08:59:12;;;;;;;;;;;13.60;49.50;;;;;;5042751;28;19915;-84
2022/04/14 09:01:38;;;;;;;;;;;16.80;51.20;;;;;;5042018;28;19915;-82
2022/04/14 09:04:05;;;;;;;;;;;16.60;50.10;;;;;;5041067;28;19916;-85
2022/04/14 09:06:32;;;;;;;;;;;17.40;51.00;;;;;;5041794;28;20008;-84
2022/04/14 09:08:58;;;;;;;;;;;16.50;51.40;;;;;;5042067;28;19970;-84
2022/04/14 09:11:25;;;;;;;;;;;17.70;47.40;;;;;;5041841;28;19955;-84
2022/04/14 09:13:51;;;;;;;;;;;17.30;46.50;;;;;;5041551;28;20011;-81
2022/04/14 09:16:19;;;;;;;;;;;17.40;47.40;;;;;;5041865;28;19944;-84
2022/04/14 09:18:46;;;;;;;;;;;17.80;46.80;;;;;;5059173;28;20414;-84
2022/04/14 09:21:12;;;;;;;;;;;17.60;46.10;;;;;;5041337;28;20379;-86
2022/04/14 09:23:38;;;;;;;;;;;17.90;45.40;;;;;;5041298;28;19924;-85
2022/04/14 09:26:04;;;;;;;;;;;17.70;45.30;;;;;;5040859;28;20462;-84
2022/04/14 09:28:30;;;;;;;;;;;18.00;44.90;;;;;;5041476;28;19909;-83
2022/04/14 09:31:03;;;;;;;;;;;17.80;44.30;;;;;;5040640;28;20536;-83
2022/04/14 09:34:11;;;;;;;;;;;;;;;;;;;;;
2022/04/14 09:36:37;;;;;;;;;;;19.90;43.90;;;;;;5059968;28;19908;-84
2022/04/14 09:39:06;;;;;;;;;;;18.90;43.20;;;;;;5059194;28;20003;-84
2022/04/14 09:41:39;;;;;;;;;;;18.50;42.00;;;;;;5059081;28;19915;-83
2022/04/14 09:44:06;;;;;;;;;;;18.70;41.50;;;;;;5040592;28;20023;-82
2022/04/14 09:46:32;;;;;;;;;;;19.20;41.70;;;;;;5041793;28;19908;-84
2022/04/14 09:49:05;;;;;;;;;;;18.40;39.30;;;;;;5059247;28;19916;-83
2022/04/14 09:51:35;;;;;;;;;;;19.50;38.20;;;;;;5058408;28;19986;-79
2022/04/14 09:54:05;;;;;;;;;;;19.60;38.30;;;;;;5059103;28;19912;-82
2022/04/14 09:56:40;;;;;;;;;;;19.40;37.30;;;;;;5040861;28;19912;-83
2022/04/14 09:59:07;;;;;;;;;;;19.60;37.70;;;;;;5040947;28;20550;-83
2022/04/14 10:01:34;;;;;;;;;;;20.00;39.20;;;;;;5040644;28;20205;-83
2022/04/14 10:04:07;;;;;;;;;;;20.30;37.90;;;;;;5059268;28;19923;-81
2022/04/14 10:06:33;;;;;;;;;;;20.60;37.90;;;;;;5058999;28;20033;-81
2022/04/14 10:08:59;;;;;;;;;;;20.90;37.80;;;;;;5042112;28;19916;-84
2022/04/14 10:11:26;;;;;;;;;;;21.00;37.20;;;;;;5060502;28;19920;-84
2022/04/14 10:13:51;;;;;;;;;;;21.10;37.10;;;;;;5060107;28;20270;-80
2022/04/14 10:16:23;;;;;;;;;;;21.10;37.60;;;;;;5041168;28;20230;-80
2022/04/14 10:18:50;;;;;;;;;;;21.10;37.30;;;;;;5059150;28;19969;-80
2022/04/14 10:21:17;;;;;;;;;;;20.70;37.90;;;;;;5059102;28;20329;-80
2022/04/14 10:23:43;;;;;;;;;;;21.00;36.80;;;;;;5040620;28;20356;-81
2022/04/14 10:26:09;;;;;;;;;;;21.20;38.10;;;;;;5040619;28;20101;-79
2022/04/14 10:28:36;;;;;;;;;;;21.30;38.70;;;;;;5040174;28;20003;-80
2022/04/14 10:31:01;;;;;;;;;;;21.20;39.30;;;;;;5060822;28;20394;-82
2022/04/14 10:33:28;;;;;;;;;;;21.50;40.10;;;;;;5065221;28;19914;-83
2022/04/14 10:35:53;;;;;;;;;;;21.90;39.10;;;;;;5065509;28;19909;-83
2022/04/14 10:38:19;;;;;;;;;;;22.10;42.10;;;;;;5065360;28;20104;-82
2022/04/14 10:40:48;;;;;;;;;;;21.30;41.60;;;;;;5065188;28;19919;-84
2022/04/14 10:43:18;;;;;;;;;;;21.50;40.60;;;;;;5065151;28;19924;-83
2022/04/14 10:45:49;;;;;;;;;;;21.70;40.50;;;;;;5064767;28;19909;-83
2022/04/14 10:48:29;;;;;;;;;;;22.00;40.10;;;;;;5047260;28;20410;-85
2022/04/14 10:51:13;;;;;;;;;;;20.20;38.60;;;;;;5047216;28;19933;-86
2022/04/14 10:53:48;;;;;;;;;;;22.10;39.30;;;;;;5066750;28;19916;-84
2022/04/14 10:56:50;;;;;;;;;;;22.60;40.60;;;;;;5068176;22;19924;-84
2022/04/14 10:59:19;;;;;;;;;;;20.20;36.10;;;;;;4964427;28;19906;-85
2022/04/14 11:01:51;;;;;;;;;;;23.60;36.80;;;;;;4964514;28;20563;-85
2022/04/14 11:04:19;;;;;;;;;;;23.00;36.10;;;;;;4948124;28;19918;-86
2022/04/14 11:06:49;;;;;;;;;;;22.00;35.80;;;;;;4948650;28;19910;-84
2022/04/14 11:09:33;;;;;;;;;;;24.20;38.60;;;;;;4964856;28;19911;-85
2022/04/14 11:11:59;;;;;;;;;;;24.20;37.00;;;;;;4964768;28;19910;-86
2022/04/14 11:14:32;;;;;;;;;;;25.80;38.50;;;;;;4948920;28;19917;-85
2022/04/14 11:16:59;;;;;;;;;;;24.90;36.30;;;;;;4948775;28;20630;-84
2022/04/14 11:19:52;;;;;;;;;;;;;;;;;;;;;
2022/04/14 11:22:33;;;;;;;;;;;26.60;33.30;;;;;;4963713;28;20598;-86
2022/04/14 11:24:59;;;;;;;;;;;25.10;32.40;;;;;;4947290;28;19914;-86
2022/04/14 11:27:30;;;;;;;;;;;25.00;33.50;;;;;;4947905;28;19930;-84
2022/04/14 11:30:14;;;;;;;;;;;25.90;32.90;;;;;;4964178;28;19937;-85
2022/04/14 11:32:49;;;;;;;;;;;27.00;31.20;;;;;;4949613;28;20486;-84
2022/04/14 11:35:18;;;;;;;;;;;23.40;29.60;;;;;;5007388;28;19915;-80
2022/04/14 11:37:49;;;;;;;;;;;26.30;31.30;;;;;;5006927;28;19909;-80
2022/04/14 11:40:25;;;;;;;;;;;26.30;30.20;;;;;;5024853;28;19909;-83
2022/04/14 11:42:52;;;;;;;;;;;25.50;28.40;;;;;;5006459;28;19917;-83
2022/04/14 11:45:25;;;;;;;;;;;26.80;29.90;;;;;;5004197;28;19909;-83
2022/04/14 11:48:00;;;;;;;;;;;25.90;28.50;;;;;;5022445;28;19917;-83
2022/04/14 11:50:36;;;;;;;;;;;27.70;30.80;;;;;;5022123;28;20200;-84
2022/04/14 11:53:04;;;;;;;;;;;27.80;30.00;;;;;;5022146;28;20210;-81
2022/04/14 11:55:48;;;;;;;;;;;27.40;28.70;;;;;;5021412;28;19921;-84
2022/04/14 11:58:16;;;;;;;;;;;27.00;27.50;;;;;;5021646;28;19941;-79
2022/04/14 12:00:45;;;;;;;;;;;26.90;27.80;;;;;;5021613;28;19909;-81
2022/04/14 12:03:11;;;;;;;;;;;26.20;27.70;;;;;;5021803;28;19994;-81
2022/04/14 12:05:37;;;;;;;;;;;26.90;28.90;;;;;;5021659;28;20028;-79
2022/04/14 12:08:29;;;;;;;;;;;27.30;27.90;;;;;;5020814;28;19913;-84
2022/04/14 12:11:13;;;;;;;;;;;27.10;27.40;;;;;;5015324;28;19912;-82
2022/04/14 12:13:51;;;;;;;;;;;28.60;27.70;;;;;;5003580;28;19931;-82
2022/04/14 12:16:19;;;;;;;;;;;28.20;27.40;;;;;;5003753;28;20494;-83
2022/04/14 12:18:55;;;;;;;;;;;29.90;28.40;;;;;;5003581;28;19916;-83
2022/04/14 12:21:27;;;;;;;;;;;29.20;28.10;;;;;;5003850;28;19910;-81
2022/04/14 12:24:23;;;;;;;;;;;30.40;28.30;;;;;;5002956;28;19917;-82
2022/04/14 12:27:06;;;;;;;;;;;30.30;27.00;;;;;;5020364;28;19917;-82
2022/04/14 12:29:41;;;;;;;;;;;30.40;26.20;;;;;;5003851;28;19909;-82
2022/04/14 12:32:32;;;;;;;;;;;31.20;26.90;;;;;;5001541;28;19909;-82
2022/04/14 12:35:08;;;;;;;;;;;30.50;25.80;;;;;;5003555;28;19916;-82
2022/04/14 12:37:57;;;;;;;;;;;32.40;26.80;;;;;;5003149;28;20499;-82
2022/04/14 12:40:42;;;;;;;;;;;31.50;25.60;;;;;;4997654;28;20008;-82
2022/04/14 12:43:19;;;;;;;;;;;32.30;27.30;;;;;;5002814;28;20616;-83
2022/04/14 12:45:49;;;;;;;;;;;31.90;26.30;;;;;;5020403;28;20411;-84
2022/04/14 12:48:36;;;;;;;;;;;31.50;26.20;;;;;;5020777;28;19913;-83
2022/04/14 12:51:25;;;;;;;;;;;;;;;;;;;;;
2022/04/14 12:54:26;;;;;;;;;;;32.90;26.80;;;;;;5021972;28;19909;-84
2022/04/14 12:57:05;;;;;;;;;;;32.80;26.20;;;;;;4971591;28;19948;-84
2022/04/14 12:59:40;;;;;;;;;;;32.90;25.80;;;;;;5023215;28;19919;-86
2022/04/14 13:02:29;;;;;;;;;;;;;;;;;;;;;
2022/04/14 13:05:11;;;;;;;;;;;36.40;28.20;;;;;;5022295;28;19932;-84
2022/04/14 13:07:48;;;;;;;;;;;33.00;25.20;;;;;;5020792;28;19917;-84
2022/04/14 13:10:22;;;;;;;;;;;33.70;26.10;;;;;;5020446;28;19920;-81
2022/04/14 13:13:04;;;;;;;;;;;33.00;25.30;;;;;;5003938;28;20264;-82
2022/04/14 13:15:42;;;;;;;;;;;32.90;24.30;;;;;;5021393;28;19909;-82
2022/04/14 13:18:46;;;;;;;;;;;;;;;;;;;;;
2022/04/14 13:21:14;;;;;;;;;;;33.60;25.60;;;;;;4978504;28;19910;-81
2022/04/14 13:23:40;;;;;;;;;;;32.60;27.50;;;;;;4961596;28;19918;-81
2022/04/14 13:26:06;;;;;;;;;;;29.90;23.80;;;;;;4977883;28;19921;-82
2022/04/14 13:28:32;;;;;;;;;;;33.70;26.70;;;;;;4961713;28;19906;-81
2022/04/14 13:30:57;;;;;;;;;;;33.80;25.40;;;;;;4977337;28;20005;-83
2022/04/14 13:33:23;;;;;;;;;;;33.80;25.20;;;;;;4961488;28;19910;-79
2022/04/14 13:35:48;;;;;;;;;;;33.00;24.50;;;;;;4977712;28;19996;-81
2022/04/14 13:38:17;;;;;;;;;;;33.30;24.80;;;;;;4961025;28;19936;-80
2022/04/14 13:40:43;;;;;;;;;;;32.80;24.70;;;;;;4960763;28;19909;-80
2022/04/14 13:43:08;;;;;;;;;;;33.10;25.20;;;;;;4976766;28;19914;-81
2022/04/14 13:45:34;;;;;;;;;;;33.30;26.60;;;;;;4977088;28;19917;-78
2022/04/14 13:47:59;;;;;;;;;;;33.10;25.10;;;;;;4977255;28;20725;-77
2022/04/14 13:50:25;;;;;;;;;;;33.90;25.10;;;;;;5018652;28;20576;-78
2022/04/14 13:52:50;;;;;;;;;;;33.30;24.50;;;;;;5028073;28;19909;-79
2022/04/14 13:55:20;;;;;;;;;;;33.00;24.60;;;;;;5035030;28;19916;-81
2022/04/14 13:57:45;;;;;;;;;;;32.50;24.80;;;;;;5036818;28;20002;-80
2022/04/14 14:00:12;;;;;;;;;;;32.70;24.70;;;;;;5023484;28;19913;-79
2022/04/14 14:02:39;;;;;;;;;;;32.50;24.80;;;;;;5019878;28;19921;-81
2022/04/14 14:05:04;;;;;;;;;;;32.20;24.70;;;;;;5019512;28;19971;-81
2022/04/14 14:07:30;;;;;;;;;;;32.50;25.10;;;;;;5020145;28;19916;-79
2022/04/14 14:09:55;;;;;;;;;;;32.80;24.80;;;;;;5020286;28;20659;-76
2022/04/14 14:12:22;;;;;;;;;;;33.20;24.80;;;;;;5020484;28;20153;-78
2022/04/14 14:14:47;;;;;;;;;;;33.10;25.10;;;;;;5001094;28;20007;-78
2022/04/14 14:17:13;;;;;;;;;;;33.40;25.00;;;;;;5019688;28;19995;-79
2022/04/14 14:19:38;;;;;;;;;;;33.70;24.50;;;;;;5018926;28;19909;-80
2022/04/14 14:22:04;;;;;;;;;;;34.20;24.70;;;;;;5018220;28;19916;-77
2022/04/14 14:24:29;;;;;;;;;;;34.40;24.80;;;;;;5017672;28;19909;-78
2022/04/14 14:26:55;;;;;;;;;;;34.60;23.40;;;;;;5018201;28;20499;-78
2022/04/14 14:29:20;;;;;;;;;;;33.50;23.30;;;;;;5018340;28;19912;-78
2022/04/14 14:31:46;;;;;;;;;;;32.70;23.90;;;;;;5018245;28;20593;-80
2022/04/14 14:34:12;;;;;;;;;;;32.20;24.30;;;;;;5018275;28;19913;-79
2022/04/14 14:36:38;;;;;;;;;;;32.10;24.40;;;;;;5018483;28;20479;-81
2022/04/14 14:39:03;;;;;;;;;;;32.70;24.00;;;;;;5018432;28;19960;-80
2022/04/14 14:41:30;;;;;;;;;;;32.60;23.60;;;;;;5018011;28;20418;-78
2022/04/14 14:43:56;;;;;;;;;;;32.50;23.50;;;;;;5017824;28;19960;-79
2022/04/14 14:46:22;;;;;;;;;;;32.60;23.70;;;;;;5000324;28;20007;-82
2022/04/14 14:48:48;;;;;;;;;;;32.80;24.70;;;;;;5018023;28;20004;-79
2022/04/14 14:51:13;;;;;;;;;;;32.30;23.40;;;;;;5018206;28;19917;-79
2022/04/14 14:53:39;;;;;;;;;;;32.80;23.30;;;;;;4999660;28;19905;-79
2022/04/14 14:56:05;;;;;;;;;;;33.30;23.60;;;;;;5018679;28;19925;-79
2022/04/14 15:01:15;;;;;;;;;;;33.10;23.30;;;;;;5018550;28;19915;-80
2022/04/14 15:03:41;;;;;;;;;;;33.30;23.40;;;;;;5018260;28;19917;-78
2022/04/14 15:06:06;;;;;;;;;;;33.30;23.20;;;;;;5017634;28;19917;-78
2022/04/14 15:08:32;;;;;;;;;;;33.30;22.70;;;;;;5017552;28;19940;-77
2022/04/14 15:10:58;;;;;;;;;;;33.20;23.00;;;;;;5017379;28;19981;-80
2022/04/14 15:13:23;;;;;;;;;;;33.00;23.00;;;;;;5017464;28;19909;-78
2022/04/14 15:15:50;;;;;;;;;;;33.20;23.10;;;;;;5017697;28;19913;-80
2022/04/14 15:18:16;;;;;;;;;;;33.00;23.00;;;;;;5020231;28;19909;-81
2022/04/14 15:20:41;;;;;;;;;;;33.00;23.20;;;;;;5021411;28;19963;-78
2022/04/14 15:23:07;;;;;;;;;;;32.70;22.90;;;;;;5021262;28;19952;-78
2022/04/14 15:25:34;;;;;;;;;;;32.90;22.70;;;;;;5002847;28;19913;-78
2022/04/14 15:28:04;;;;;;;;;;;33.20;23.90;;;;;;5003843;28;19916;-79
2022/04/14 15:30:29;;;;;;;;;;;33.40;24.60;;;;;;5021399;28;20591;-79
2022/04/14 15:32:56;;;;;;;;;;;33.60;23.30;;;;;;5002902;28;19913;-79
2022/04/14 15:35:25;;;;;;;;;;;33.70;22.40;;;;;;5021025;28;19909;-79
2022/04/14 15:37:51;;;;;;;;;;;33.40;22.70;;;;;;5020911;28;19917;-78
2022/04/14 15:40:17;;;;;;;;;;;33.60;22.70;;;;;;5020910;28;20126;-80
2022/04/14 15:42:43;;;;;;;;;;;33.80;22.20;;;;;;5021123;28;20184;-78
2022/04/14 15:45:09;;;;;;;;;;;33.80;22.20;;;;;;5021536;28;20552;-81
2022/04/14 15:47:37;;;;;;;;;;;33.50;22.10;;;;;;5021077;28;19909;-80
2022/04/14 15:50:03;;;;;;;;;;;33.70;22.80;;;;;;5021408;28;19917;-81
2022/04/14 15:52:29;;;;;;;;;;;33.40;22.80;;;;;;5021102;28;19910;-80
2022/04/14 15:54:55;;;;;;;;;;;32.80;22.10;;;;;;5020883;28;19918;-81
2022/04/14 15:57:22;;;;;;;;;;;33.50;22.80;;;;;;5021067;28;19921;-81
2022/04/14 15:59:47;;;;;;;;;;;33.60;22.70;;;;;;5020582;28;19913;-82
2022/04/14 16:02:13;;;;;;;;;;;33.50;22.50;;;;;;5020851;28;19913;-83
2022/04/14 16:04:39;;;;;;;;;;;33.60;22.20;;;;;;5003438;28;19909;-83
2022/04/14 16:07:05;;;;;;;;;;;32.60;22.10;;;;;;5020687;28;20012;-79
2022/04/14 16:12:02;;;;;;;;;;;32.90;22.30;;;;;;5020704;28;20012;-83
2022/04/14 16:12:16;;;;;;;;;;;33.00;22.60;;;;;;5020672;28;20583;-80
2022/04/14 16:14:42;;;;;;;;;;;33.10;22.60;;;;;;5002884;28;19931;-82
2022/04/14 16:17:08;;;;;;;;;;;32.70;24.40;;;;;;5020698;28;19917;-84
2022/04/14 16:19:33;;;;;;;;;;;32.50;22.60;;;;;;5021054;28;20623;-80
2022/04/14 16:21:59;;;;;;;;;;;32.50;24.00;;;;;;5001908;28;19909;-81
2022/04/14 16:24:24;;;;;;;;;;;32.10;24.10;;;;;;5002628;28;20327;-82
2022/04/14 16:26:50;;;;;;;;;;;31.90;22.30;;;;;;5020399;28;19909;-81
2022/04/14 16:29:19;;;;;;;;;;;31.60;22.30;;;;;;5001751;28;20180;-83
2022/04/14 16:31:45;;;;;;;;;;;31.30;22.20;;;;;;5020576;28;20395;-82
2022/04/14 16:34:12;;;;;;;;;;;31.20;22.40;;;;;;5020783;28;19932;-81
2022/04/14 16:36:38;;;;;;;;;;;30.60;22.30;;;;;;5002908;28;19917;-81
2022/04/14 16:39:05;;;;;;;;;;;30.30;22.60;;;;;;5020507;28;19914;-83
2022/04/14 16:41:32;;;;;;;;;;;26.90;21.80;;;;;;5003278;28;19916;-83
2022/04/14 16:43:59;;;;;;;;;;;32.00;24.60;;;;;;5021221;28;19928;-84
2022/04/14 16:46:25;;;;;;;;;;;28.90;23.50;;;;;;5020859;28;19948;-83
2022/04/14 16:48:53;;;;;;;;;;;28.20;26.20;;;;;;5003200;28;20240;-82
2022/04/14 16:51:19;;;;;;;;;;;27.50;27.00;;;;;;5002937;28;19913;-80
2022/04/14 16:53:44;;;;;;;;;;;26.90;27.00;;;;;;5020624;28;20491;-82
2022/04/14 16:56:10;;;;;;;;;;;26.00;27.60;;;;;;5002642;28;19940;-82
2022/04/14 16:58:36;;;;;;;;;;;25.70;28.20;;;;;;5003200;28;19909;-83
2022/04/14 17:01:02;;;;;;;;;;;25.20;27.90;;;;;;5020662;28;19909;-82
2022/04/14 17:03:27;;;;;;;;;;;24.70;28.20;;;;;;5020714;28;19924;-80
2022/04/14 17:05:53;;;;;;;;;;;22.40;28.00;;;;;;5020167;28;20549;-80
2022/04/14 17:08:18;;;;;;;;;;;23.80;28.80;;;;;;5002541;28;20607;-82
2022/04/14 17:10:44;;;;;;;;;;;23.70;28.40;;;;;;5002537;28;19913;-82
2022/04/14 17:13:11;;;;;;;;;;;23.30;29.40;;;;;;5002468;28;19921;-81
2022/04/14 17:15:36;;;;;;;;;;;22.90;29.50;;;;;;5001906;28;19917;-81
2022/04/14 17:18:02;;;;;;;;;;;24.50;31.70;;;;;;5002461;28;20495;-82
2022/04/14 17:20:28;;;;;;;;;;;22.20;31.30;;;;;;5019496;28;19905;-83